Time;durP1;ratioP1;P1;durP2;ratioP2;P2;SDS_P1;SDS_P2;PMS_P1;PMS_P2;Temp;Humidity;BMP_temperature;BMP_pressure;BME280_temperature;BME280_humidity;BME280_pressure;Samples;Min_cycle;Max_cycle;Signal;HPM_P1;HPM_P2
2021/01/24 00:01:58;;;;;;;16.30;9.77;;;5.70;97.50;;;;;;5071983;28;20064;-71
2021/01/24 00:04:24;;;;;;;18.73;9.52;;;5.70;97.40;;;;;;5071463;28;20445;-72
2021/01/24 00:06:50;;;;;;;16.10;9.77;;;5.70;97.80;;;;;;5072021;28;20450;-71
2021/01/24 00:09:15;;;;;;;13.57;8.63;;;5.70;97.50;;;;;;5073894;28;20031;-70
2021/01/24 00:11:41;;;;;;;15.35;8.57;;;5.70;97.50;;;;;;5070210;28;20029;-70
2021/01/24 00:14:07;;;;;;;16.40;9.45;;;5.70;97.50;;;;;;5070314;28;20084;-71
2021/01/24 00:16:32;;;;;;;18.88;9.32;;;5.70;97.50;;;;;;5070923;28;20036;-70
2021/01/24 00:18:58;;;;;;;17.45;10.00;;;5.90;97.50;;;;;;5071729;28;20417;-70
2021/01/24 00:21:24;;;;;;;16.67;9.57;;;5.90;97.40;;;;;;5073211;28;20020;-71
2021/01/24 00:23:49;;;;;;;19.08;10.13;;;5.90;97.40;;;;;;5072106;28;20124;-71
2021/01/24 00:26:15;;;;;;;16.48;9.57;;;5.80;97.30;;;;;;5071471;28;20043;-70
2021/01/24 00:28:41;;;;;;;15.75;9.65;;;5.70;97.30;;;;;;5071722;28;20053;-71
2021/01/24 00:31:07;;;;;;;17.73;9.35;;;5.80;97.40;;;;;;5071649;28;20115;-70
2021/01/24 00:33:32;;;;;;;18.40;9.73;;;5.80;97.40;;;;;;5071455;28;20085;-69
2021/01/24 00:35:58;;;;;;;17.92;9.75;;;5.70;97.40;;;;;;5053480;28;20040;-71
2021/01/24 00:38:24;;;;;;;16.45;8.93;;;5.70;97.50;;;;;;5067003;28;20132;-72
2021/01/24 00:40:49;;;;;;;17.85;8.98;;;5.60;97.60;;;;;;5071405;28;20404;-70
2021/01/24 00:43:15;;;;;;;16.70;8.90;;;5.60;97.70;;;;;;5071752;28;20029;-72
2021/01/24 00:45:41;;;;;;;16.52;8.80;;;5.80;97.70;;;;;;5071162;28;20045;-71
2021/01/24 00:48:07;;;;;;;19.45;9.13;;;5.70;97.50;;;;;;5072944;28;20016;-72
2021/01/24 00:50:33;;;;;;;16.63;9.50;;;5.80;97.50;;;;;;5071587;28;20120;-71
2021/01/24 00:52:58;;;;;;;14.10;8.75;;;5.80;97.30;;;;;;5071746;28;20043;-69
2021/01/24 00:55:24;;;;;;;15.43;8.93;;;5.80;97.40;;;;;;5071657;28;20028;-70
2021/01/24 00:57:49;;;;;;;17.05;8.75;;;5.70;97.40;;;;;;5071380;28;20151;-69
2021/01/24 01:00:16;;;;;;;20.38;9.45;;;5.60;97.80;;;;;;5073049;28;20024;-70
2021/01/24 01:02:41;;;;;;;16.73;9.02;;;5.70;97.60;;;;;;5071089;28;20037;-70
2021/01/24 01:05:07;;;;;;;14.23;8.40;;;5.60;97.60;;;;;;5071375;28;20097;-70
2021/01/24 01:07:33;;;;;;;21.52;9.15;;;5.50;97.70;;;;;;5071423;28;20429;-70
2021/01/24 01:09:59;;;;;;;17.92;9.57;;;5.60;97.80;;;;;;5067364;28;20033;-70
2021/01/24 01:12:24;;;;;;;17.83;8.98;;;5.50;97.80;;;;;;5052820;28;20017;-71
2021/01/24 01:14:50;;;;;;;14.63;8.82;;;5.60;97.80;;;;;;5070446;28;20029;-71
2021/01/24 01:17:16;;;;;;;16.73;9.88;;;5.50;97.80;;;;;;5071152;28;20347;-71
2021/01/24 01:19:41;;;;;;;16.83;8.48;;;5.60;97.80;;;;;;5071213;28;20029;-72
2021/01/24 01:22:07;;;;;;;16.10;9.68;;;5.60;97.70;;;;;;5071188;28;20036;-70
2021/01/24 01:24:33;;;;;;;18.60;9.52;;;5.70;97.70;;;;;;5070977;28;20032;-70
2021/01/24 01:26:59;;;;;;;17.60;10.13;;;5.80;97.50;;;;;;5072706;28;20032;-70
2021/01/24 01:29:25;;;;;;;18.40;9.85;;;5.60;97.40;;;;;;5074346;28;20032;-70
2021/01/24 01:31:50;;;;;;;15.55;9.50;;;5.60;97.70;;;;;;5074796;28;20029;-70
2021/01/24 01:34:16;;;;;;;18.00;9.68;;;5.60;97.70;;;;;;5074465;28;20029;-71
2021/01/24 01:36:42;;;;;;;17.75;9.27;;;5.60;97.70;;;;;;5073154;28;20036;-70
2021/01/24 01:39:07;;;;;;;19.92;10.32;;;5.60;97.70;;;;;;5076036;28;20119;-71
2021/01/24 01:41:34;;;;;;;17.98;10.32;;;5.60;97.80;;;;;;5074466;28;20125;-70
2021/01/24 01:44:01;;;;;;;21.52;10.30;;;5.70;97.60;;;;;;5074672;28;20039;-69
2021/01/24 01:46:29;;;;;;;22.48;9.98;;;5.70;97.60;;;;;;5074494;28;20033;-69
2021/01/24 01:48:55;;;;;;;19.20;9.73;;;5.70;97.50;;;;;;5074469;28;20118;-70
2021/01/24 01:51:21;;;;;;;19.90;10.25;;;5.60;97.90;;;;;;5076105;28;20048;-70
2021/01/24 01:53:47;;;;;;;19.20;10.55;;;5.70;97.60;;;;;;5074604;28;20137;-71
2021/01/24 01:56:14;;;;;;;20.83;9.95;;;5.60;97.50;;;;;;5073301;28;20036;-70
2021/01/24 01:58:40;;;;;;;21.10;9.73;;;5.70;97.60;;;;;;5073426;28;20048;-70
2021/01/24 02:01:15;;;;;;;19.75;9.77;;;5.60;97.70;;;;;;5074348;28;20039;-70
2021/01/24 02:03:54;;;;;;;16.27;9.60;;;5.60;97.60;;;;;;5074301;28;20350;-70
2021/01/24 02:06:38;;;;;;;17.80;9.73;;;5.60;97.50;;;;;;5075658;28;20446;-70
2021/01/24 02:09:17;;;;;;;16.70;9.40;;;5.80;97.60;;;;;;5074363;28;20036;-70
2021/01/24 02:12:01;;;;;;;15.70;8.70;;;5.70;97.50;;;;;;5073055;28;20488;-70
2021/01/24 02:14:30;;;;;;;17.15;9.80;;;5.60;97.40;;;;;;5074020;28;20046;-71
2021/01/24 02:17:02;;;;;;;20.25;9.27;;;5.70;97.60;;;;;;5074010;28;20055;-72
2021/01/24 02:19:41;;;;;;;20.17;9.38;;;5.70;97.50;;;;;;5073856;28;20029;-70
2021/01/24 02:22:10;;;;;;;22.05;10.20;;;5.70;97.60;;;;;;5074213;28;20043;-72
2021/01/24 02:24:41;;;;;;;14.70;9.07;;;5.70;97.60;;;;;;5072657;28;20033;-70
2021/01/24 02:27:14;;;;;;;15.70;9.15;;;5.70;97.40;;;;;;5075416;28;20103;-71
2021/01/24 02:30:15;;;;;;;21.80;10.00;;;5.60;97.50;;;;;;5073682;28;20466;-70
2021/01/24 02:32:42;;;;;;;16.38;10.00;;;5.70;97.60;;;;;;5062269;28;20040;-70
2021/01/24 02:35:08;;;;;;;19.67;9.30;;;5.70;97.40;;;;;;5073679;28;20462;-70
2021/01/24 02:37:34;;;;;;;21.02;10.02;;;5.70;97.40;;;;;;5064232;28;20033;-69
2021/01/24 02:40:02;;;;;;;17.42;9.27;;;5.70;97.40;;;;;;5056005;28;20054;-71
2021/01/24 02:42:29;;;;;;;19.55;9.88;;;5.70;97.40;;;;;;5074893;28;20148;-70
2021/01/24 02:44:55;;;;;;;18.40;10.40;;;5.60;97.50;;;;;;5073226;28;20043;-72
2021/01/24 02:47:21;;;;;;;16.48;9.65;;;5.60;97.40;;;;;;5072891;27;20431;-71
2021/01/24 02:49:48;;;;;;;18.13;10.57;;;5.70;97.40;;;;;;5062856;28;20029;-71
2021/01/24 02:52:15;;;;;;;16.23;8.98;;;5.70;97.30;;;;;;5053354;28;20033;-71
2021/01/24 02:54:43;;;;;;;20.17;9.88;;;5.60;97.20;;;;;;5053416;28;20032;-70
2021/01/24 02:57:09;;;;;;;17.05;9.60;;;5.60;97.10;;;;;;5054860;28;20017;-70
2021/01/24 02:59:36;;;;;;;19.70;10.23;;;5.60;97.20;;;;;;5069993;28;20120;-70
2021/01/24 03:02:02;;;;;;;17.92;9.70;;;5.60;97.20;;;;;;5060026;28;20033;-72
2021/01/24 03:04:28;;;;;;;19.35;10.65;;;5.60;97.20;;;;;;5060806;28;20110;-70
2021/01/24 03:06:54;;;;;;;19.85;10.20;;;5.60;97.20;;;;;;5068741;28;20037;-70
2021/01/24 03:09:20;;;;;;;17.67;9.65;;;5.60;97.20;;;;;;5053464;28;20108;-71
2021/01/24 03:11:49;;;;;;;23.10;10.15;;;5.50;97.20;;;;;;5071520;28;20401;-70
2021/01/24 03:14:20;;;;;;;21.13;10.48;;;5.40;97.40;;;;;;5058555;28;20078;-72
2021/01/24 03:16:49;;;;;;;16.83;10.15;;;5.40;97.50;;;;;;5052271;28;20463;-71
2021/01/24 03:19:19;;;;;;;16.75;9.68;;;5.40;97.40;;;;;;5052843;28;20041;-70
2021/01/24 03:21:47;;;;;;;20.08;10.18;;;5.40;97.40;;;;;;5054510;28;20432;-71
2021/01/24 03:24:16;;;;;;;19.30;9.85;;;5.40;97.30;;;;;;5074486;28;20032;-70
2021/01/24 03:26:43;;;;;;;19.73;10.00;;;5.40;97.30;;;;;;5072648;28;20040;-70
2021/01/24 03:29:08;;;;;;;19.42;10.82;;;5.40;97.30;;;;;;5072659;28;20084;-70
2021/01/24 03:31:34;;;;;;;19.45;9.82;;;5.50;97.30;;;;;;5071598;28;20060;-71
2021/01/24 03:34:04;;;;;;;19.27;9.63;;;5.50;97.30;;;;;;5072289;28;20039;-71
2021/01/24 03:36:30;;;;;;;18.52;9.13;;;5.50;97.30;;;;;;5073898;28;20024;-72
2021/01/24 03:38:56;;;;;;;20.40;10.32;;;5.60;97.20;;;;;;5071915;28;20036;-70
2021/01/24 03:41:21;;;;;;;18.58;10.43;;;5.60;97.10;;;;;;5057004;27;20348;-71
2021/01/24 03:43:47;;;;;;;17.02;9.75;;;5.60;97.00;;;;;;5052315;28;20029;-70
2021/01/24 03:46:12;;;;;;;18.02;10.75;;;5.60;96.90;;;;;;5051240;28;20304;-69
2021/01/24 03:48:38;;;;;;;19.25;9.75;;;5.60;96.80;;;;;;5051983;28;20025;-69
2021/01/24 03:51:04;;;;;;;19.92;10.18;;;5.50;96.90;;;;;;5053370;28;20070;-69
2021/01/24 03:53:29;;;;;;;19.73;10.65;;;5.50;97.00;;;;;;5051368;28;20053;-70
2021/01/24 03:55:55;;;;;;;18.30;9.85;;;5.50;97.10;;;;;;5051631;28;20029;-70
2021/01/24 03:58:21;;;;;;;17.73;10.55;;;5.50;97.10;;;;;;5052087;28;20028;-69
2021/01/24 04:00:46;;;;;;;16.20;9.15;;;5.40;97.10;;;;;;5052472;28;20040;-70
2021/01/24 04:03:12;;;;;;;17.30;9.73;;;5.40;97.10;;;;;;5053601;28;20361;-70
2021/01/24 04:05:38;;;;;;;20.23;9.60;;;5.30;97.20;;;;;;5069528;28;20033;-70
2021/01/24 04:08:03;;;;;;;17.23;10.20;;;5.40;97.30;;;;;;5071980;28;20069;-69
2021/01/24 04:10:29;;;;;;;18.52;9.65;;;5.50;97.30;;;;;;5063763;28;20475;-71
2021/01/24 04:12:55;;;;;;;18.17;9.80;;;5.60;97.00;;;;;;5054953;28;20032;-71
2021/01/24 04:15:20;;;;;;;24.17;11.10;;;5.60;96.90;;;;;;5073304;28;20093;-70
2021/01/24 04:17:46;;;;;;;23.65;11.20;;;5.50;96.80;;;;;;5071970;28;20041;-70
2021/01/24 04:20:12;;;;;;;19.45;9.93;;;5.40;96.90;;;;;;5071827;28;20033;-70
2021/01/24 04:22:37;;;;;;;18.98;10.68;;;5.40;97.10;;;;;;5071704;28;20039;-71
2021/01/24 04:25:04;;;;;;;21.60;10.75;;;5.40;97.20;;;;;;5071571;28;20048;-69
2021/01/24 04:27:30;;;;;;;21.85;11.30;;;5.30;97.30;;;;;;5073305;28;20458;-70
2021/01/24 04:29:55;;;;;;;17.10;9.80;;;5.20;97.60;;;;;;5071650;28;20062;-72
2021/01/24 04:32:21;;;;;;;23.92;11.35;;;5.30;97.60;;;;;;5071776;28;20127;-71
2021/01/24 04:34:46;;;;;;;19.13;10.05;;;5.30;97.40;;;;;;5061410;28;20033;-70
2021/01/24 04:37:12;;;;;;;19.88;10.48;;;5.30;97.40;;;;;;5051718;28;20029;-72
2021/01/24 04:39:37;;;;;;;21.15;10.95;;;5.30;97.50;;;;;;5052290;28;20056;-70
2021/01/24 04:42:04;;;;;;;21.08;11.43;;;5.30;97.40;;;;;;5073133;28;20032;-71
2021/01/24 04:44:29;;;;;;;22.15;11.63;;;5.40;97.50;;;;;;5071357;28;20033;-70
2021/01/24 04:46:56;;;;;;;19.90;11.25;;;5.30;97.40;;;;;;5071345;28;20470;-70
2021/01/24 04:49:22;;;;;;;25.15;12.00;;;5.30;97.50;;;;;;5064377;28;20052;-70
2021/01/24 04:51:48;;;;;;;20.02;11.38;;;5.30;97.50;;;;;;5051502;28;20430;-70
2021/01/24 04:54:14;;;;;;;21.25;11.18;;;5.20;97.50;;;;;;5052977;28;20040;-71
2021/01/24 04:56:40;;;;;;;23.63;11.32;;;5.30;97.50;;;;;;5051273;28;20463;-70
2021/01/24 04:59:06;;;;;;;20.35;10.75;;;5.30;97.30;;;;;;5063440;28;20052;-71
2021/01/24 05:01:35;;;;;;;20.45;10.65;;;5.30;97.30;;;;;;5071401;28;20437;-70
2021/01/24 05:04:00;;;;;;;27.42;11.43;;;5.20;97.30;;;;;;5073955;28;20116;-71
2021/01/24 05:06:27;;;;;;;21.00;11.77;;;5.20;97.40;;;;;;5076917;28;20039;-70
2021/01/24 05:08:58;;;;;;;18.50;10.82;;;5.20;97.40;;;;;;5075226;28;20081;-71
2021/01/24 05:11:23;;;;;;;20.98;11.75;;;5.20;97.40;;;;;;5075284;28;20123;-70
2021/01/24 05:13:49;;;;;;;17.23;11.07;;;5.20;97.30;;;;;;5074221;28;20505;-70
2021/01/24 05:16:15;;;;;;;20.13;11.18;;;5.30;97.30;;;;;;5073848;28;20044;-70
2021/01/24 05:18:40;;;;;;;27.85;11.05;;;5.30;97.30;;;;;;5075150;28;20111;-70
2021/01/24 05:21:08;;;;;;;25.17;10.68;;;5.30;97.20;;;;;;5076411;28;20108;-70
2021/01/24 05:23:37;;;;;;;20.10;11.50;;;5.30;97.20;;;;;;5075189;28;20051;-71
2021/01/24 05:26:08;;;;;;;19.67;10.57;;;5.30;97.20;;;;;;5074903;28;20028;-72
2021/01/24 05:28:33;;;;;;;21.60;11.93;;;5.20;97.20;;;;;;5074973;28;20109;-71
2021/01/24 05:31:06;;;;;;;21.35;10.88;;;5.20;97.20;;;;;;5074595;28;20024;-70
2021/01/24 05:33:32;;;;;;;18.30;10.77;;;5.20;97.20;;;;;;5074658;28;20025;-70
2021/01/24 05:35:58;;;;;;;22.20;10.98;;;5.20;97.10;;;;;;5076104;28;20465;-70
2021/01/24 05:38:30;;;;;;;23.95;11.52;;;5.10;97.20;;;;;;5074631;28;20045;-70
2021/01/24 05:41:11;;;;;;;20.33;10.93;;;5.10;97.30;;;;;;5062708;28;20083;-70
2021/01/24 05:43:39;;;;;;;21.50;11.68;;;5.00;97.40;;;;;;5063616;28;20021;-70
2021/01/24 05:46:05;;;;;;;16.65;10.32;;;4.90;97.50;;;;;;5074501;28;20028;-71
2021/01/24 05:48:34;;;;;;;21.38;11.15;;;4.90;97.60;;;;;;5076063;28;20039;-70
2021/01/24 05:51:05;;;;;;;20.83;11.68;;;4.90;97.60;;;;;;5073590;28;20025;-71
2021/01/24 05:53:37;;;;;;;23.25;12.52;;;5.00;97.50;;;;;;5074627;28;20029;-70
2021/01/24 05:56:11;;;;;;;21.95;11.02;;;4.90;97.50;;;;;;5074364;28;20059;-70
2021/01/24 05:58:40;;;;;;;21.80;11.27;;;4.80;97.50;;;;;;5074601;28;20076;-70
2021/01/24 06:01:07;;;;;;;23.63;11.18;;;4.80;97.70;;;;;;5069577;28;20128;-70
2021/01/24 06:03:34;;;;;;;23.48;12.90;;;4.80;97.70;;;;;;5053997;28;20336;-70
2021/01/24 06:06:00;;;;;;;21.90;12.07;;;4.90;97.70;;;;;;5055698;28;20029;-71
2021/01/24 06:08:26;;;;;;;24.05;12.70;;;4.70;97.60;;;;;;5054158;28;20378;-69
2021/01/24 06:10:53;;;;;;;23.17;11.77;;;4.70;97.80;;;;;;5054079;28;20036;-70
2021/01/24 06:13:23;;;;;;;20.45;11.82;;;4.60;97.80;;;;;;5054070;28;20287;-69
2021/01/24 06:15:52;;;;;;;20.42;11.85;;;4.60;97.90;;;;;;5056418;28;20021;-69
2021/01/24 06:18:23;;;;;;;22.98;11.75;;;4.60;97.90;;;;;;5075499;28;20028;-70
2021/01/24 06:20:55;;;;;;;22.17;11.68;;;4.60;98.00;;;;;;5073271;28;20182;-70
2021/01/24 06:23:36;;;;;;;21.48;11.30;;;4.60;98.00;;;;;;5073836;28;20040;-70
2021/01/24 06:26:07;;;;;;;21.95;11.90;;;4.70;98.00;;;;;;5061255;28;20025;-71
2021/01/24 06:28:37;;;;;;;19.77;10.93;;;4.70;97.90;;;;;;5052666;28;20025;-69
2021/01/24 06:31:03;;;;;;;19.95;11.35;;;4.80;97.80;;;;;;5054001;28;20033;-70
2021/01/24 06:33:29;;;;;;;18.90;10.68;;;4.70;97.90;;;;;;5055036;28;20017;-70
2021/01/24 06:36:00;;;;;;;22.50;11.48;;;4.70;97.90;;;;;;5052429;28;20029;-70
2021/01/24 06:38:37;;;;;;;25.70;11.65;;;4.80;97.90;;;;;;5053254;28;20049;-70
2021/01/24 06:41:08;;;;;;;21.65;11.70;;;4.70;97.90;;;;;;5053344;28;20059;-70
2021/01/24 06:43:45;;;;;;;21.73;11.25;;;4.70;97.90;;;;;;5053297;28;20159;-71
2021/01/24 06:46:31;;;;;;;18.35;10.77;;;4.70;97.80;;;;;;5053107;28;20086;-71
2021/01/24 06:48:57;;;;;;;20.40;10.60;;;4.70;97.80;;;;;;5052467;28;20025;-70
2021/01/24 06:51:43;;;;;;;20.95;12.18;;;4.70;97.80;;;;;;5074723;28;20165;-70
2021/01/24 06:54:15;;;;;;;22.65;12.25;;;4.70;97.90;;;;;;5072288;28;20342;-71
2021/01/24 06:56:45;;;;;;;20.08;11.27;;;4.70;97.90;;;;;;5072147;28;20336;-70
2021/01/24 06:59:13;;;;;;;22.73;11.63;;;4.70;97.90;;;;;;5073056;28;20040;-70
2021/01/24 07:01:43;;;;;;;20.57;11.10;;;4.70;97.90;;;;;;5071980;28;20037;-70
2021/01/24 07:04:20;;;;;;;17.45;11.13;;;4.70;97.90;;;;;;5072854;28;20142;-71
2021/01/24 07:06:50;;;;;;;18.40;10.68;;;4.70;98.00;;;;;;5071938;28;20082;-70
2021/01/24 07:09:24;;;;;;;19.85;10.38;;;4.70;97.80;;;;;;5074404;28;20024;-70
2021/01/24 07:11:52;;;;;;;19.23;10.73;;;4.70;97.90;;;;;;5072690;28;20044;-71
2021/01/24 07:14:36;;;;;;;19.25;10.23;;;4.70;97.80;;;;;;5072712;28;20518;-71
2021/01/24 07:17:01;;;;;;;21.55;10.98;;;4.60;97.90;;;;;;5071547;28;20036;-71
2021/01/24 07:19:28;;;;;;;21.55;10.85;;;4.60;98.00;;;;;;5072850;28;20040;-72
2021/01/24 07:21:54;;;;;;;19.42;11.32;;;4.60;98.00;;;;;;5072400;28;20478;-71
2021/01/24 07:24:20;;;;;;;23.42;11.50;;;4.50;97.90;;;;;;5074299;28;20025;-71
2021/01/24 07:26:46;;;;;;;19.90;11.75;;;4.50;98.00;;;;;;5071627;28;20045;-79
2021/01/24 07:29:14;;;;;;;19.48;11.30;;;4.50;98.00;;;;;;5073290;28;20093;-81
2021/01/24 07:31:40;;;;;;;20.20;10.88;;;4.60;98.00;;;;;;5072992;28;20185;-80
2021/01/24 07:34:06;;;;;;;21.33;11.00;;;4.70;98.00;;;;;;5072569;28;20477;-84
2021/01/24 07:36:32;;;;;;;22.60;11.38;;;4.70;97.80;;;;;;5071938;28;20339;-71
2021/01/24 07:38:58;;;;;;;22.85;10.98;;;4.70;97.70;;;;;;5073950;28;20024;-71
2021/01/24 07:41:24;;;;;;;22.17;11.40;;;4.60;97.80;;;;;;5072243;28;20031;-69
2021/01/24 07:43:50;;;;;;;20.27;11.18;;;4.50;97.80;;;;;;5072556;28;20036;-74
2021/01/24 07:46:15;;;;;;;22.65;12.45;;;4.50;97.90;;;;;;5072361;28;20039;-72
2021/01/24 07:48:41;;;;;;;21.75;11.95;;;4.50;98.00;;;;;;5072572;28;20108;-72
2021/01/24 07:51:08;;;;;;;21.50;12.00;;;4.60;97.90;;;;;;5073915;28;20035;-71
2021/01/24 07:53:34;;;;;;;21.05;11.30;;;4.50;97.80;;;;;;5072635;28;20362;-71
2021/01/24 07:56:01;;;;;;;22.05;11.82;;;4.50;97.90;;;;;;5072548;28;20040;-70
2021/01/24 07:58:26;;;;;;;27.38;12.73;;;4.50;97.90;;;;;;5072430;28;20086;-71
2021/01/24 08:00:52;;;;;;;24.23;11.52;;;4.60;97.80;;;;;;5072124;28;20036;-74
2021/01/24 08:03:22;;;;;;;21.48;11.95;;;4.60;97.70;;;;;;5073665;28;20041;-71
2021/01/24 08:05:48;;;;;;;22.85;12.38;;;4.60;97.70;;;;;;5072494;28;20041;-72
2021/01/24 08:08:14;;;;;;;22.20;12.48;;;4.60;97.70;;;;;;5072312;28;20043;-70
2021/01/24 08:10:40;;;;;;;20.88;12.50;;;4.70;97.70;;;;;;5072465;28;20025;-75
2021/01/24 08:13:05;;;;;;;22.55;12.30;;;4.70;97.60;;;;;;5072425;28;20032;-70
2021/01/24 08:15:31;;;;;;;24.63;12.75;;;4.70;97.70;;;;;;5073908;28;20481;-83
2021/01/24 08:17:59;;;;;;;22.23;12.13;;;4.80;97.90;;;;;;5073539;28;20032;-82
2021/01/24 08:20:26;;;;;;;24.90;11.68;;;4.70;97.70;;;;;;5072783;28;20047;-85
2021/01/24 08:22:52;;;;;;;22.05;12.27;;;4.70;97.60;;;;;;5072144;28;20092;-87
2021/01/24 08:25:19;;;;;;;21.67;12.85;;;4.70;97.60;;;;;;5072994;28;20060;-86
2021/01/24 08:27:46;;;;;;;22.85;12.18;;;4.70;97.60;;;;;;5069748;28;20020;-84
2021/01/24 08:30:13;;;;;;;24.40;12.98;;;4.70;97.90;;;;;;5052936;28;20035;-83
2021/01/24 08:32:41;;;;;;;23.88;12.85;;;4.70;97.70;;;;;;5070102;28;20071;-81
2021/01/24 08:35:07;;;;;;;23.00;12.85;;;4.60;97.70;;;;;;5072187;28;20358;-82
2021/01/24 08:37:33;;;;;;;25.55;13.73;;;4.80;97.80;;;;;;5072499;28;20039;-80
2021/01/24 08:39:59;;;;;;;26.67;13.45;;;4.80;97.80;;;;;;5076496;28;20060;-79
2021/01/24 08:42:25;;;;;;;23.92;13.38;;;4.80;97.80;;;;;;5077721;28;20020;-80
2021/01/24 08:45:01;;;;;;;27.95;14.40;;;4.80;98.00;;;;;;5075049;28;20041;-75
2021/01/24 08:47:27;;;;;;;25.40;13.07;;;4.80;97.80;;;;;;5076278;28;20473;-79
2021/01/24 08:50:10;;;;;;;25.60;14.52;;;4.80;97.80;;;;;;5075793;28;20064;-71
2021/01/24 08:52:36;;;;;;;26.08;13.95;;;4.80;98.00;;;;;;5075812;28;20093;-73
2021/01/24 08:55:04;;;;;;;25.52;13.73;;;4.90;98.10;;;;;;5075794;28;20389;-75
2021/01/24 08:57:33;;;;;;;27.80;13.50;;;4.90;98.00;;;;;;5077330;28;20024;-72
2021/01/24 09:00:08;;;;;;;24.35;13.30;;;4.90;98.00;;;;;;5075386;28;20033;-74
2021/01/24 09:02:40;;;;;;;23.52;13.18;;;4.90;98.10;;;;;;5075607;28;20412;-78
2021/01/24 09:05:10;;;;;;;25.52;13.45;;;5.00;98.10;;;;;;5075637;28;20072;-77
2021/01/24 09:07:37;;;;;;;26.10;14.18;;;5.10;98.00;;;;;;5075601;28;20109;-73
2021/01/24 09:10:27;;;;;;;25.63;13.00;;;5.10;98.00;;;;;;5075507;28;20020;-74
2021/01/24 09:12:55;;;;;;;28.65;14.07;;;5.20;97.80;;;;;;5074394;28;20115;-74
2021/01/24 09:15:22;;;;;;;26.40;13.25;;;5.10;97.70;;;;;;5077129;28;20107;-76
2021/01/24 09:17:49;;;;;;;26.20;13.45;;;5.10;97.80;;;;;;5075197;28;20036;-75
2021/01/24 09:20:15;;;;;;;29.25;14.70;;;5.10;97.70;;;;;;5074091;28;20033;-77
2021/01/24 09:22:41;;;;;;;28.33;13.77;;;5.20;97.70;;;;;;5075177;28;20123;-75
2021/01/24 09:25:08;;;;;;;23.27;13.25;;;5.30;97.70;;;;;;5074822;28;20060;-70
2021/01/24 09:27:36;;;;;;;27.10;13.77;;;5.30;97.60;;;;;;5074863;28;20032;-75
2021/01/24 09:30:15;;;;;;;29.77;14.27;;;5.20;97.50;;;;;;5076606;28;20323;-79
2021/01/24 09:32:41;;;;;;;30.83;14.77;;;5.20;97.40;;;;;;5074947;28;20363;-72
2021/01/24 09:35:08;;;;;;;25.65;14.65;;;5.30;97.50;;;;;;5074855;28;20044;-74
2021/01/24 09:37:34;;;;;;;25.63;13.88;;;5.30;97.50;;;;;;5075051;28;20037;-74
2021/01/24 09:40:00;;;;;;;27.40;15.15;;;5.30;97.50;;;;;;5073570;28;20040;-74
2021/01/24 09:42:26;;;;;;;28.90;15.25;;;5.30;97.50;;;;;;5076289;28;20028;-76
2021/01/24 09:44:51;;;;;;;32.05;16.25;;;5.30;97.70;;;;;;5074500;28;20369;-75
2021/01/24 09:47:17;;;;;;;34.85;16.30;;;5.20;98.00;;;;;;5074719;28;20083;-76
2021/01/24 09:49:43;;;;;;;29.90;16.52;;;5.30;97.80;;;;;;5075781;28;20028;-74
2021/01/24 09:52:09;;;;;;;29.17;15.93;;;5.40;98.00;;;;;;5068136;28;20072;-75
2021/01/24 09:54:35;;;;;;;28.23;15.55;;;5.40;97.90;;;;;;5074343;28;20405;-72
2021/01/24 09:57:00;;;;;;;32.53;16.67;;;5.40;98.10;;;;;;5073332;28;20045;-73
2021/01/24 09:59:26;;;;;;;34.50;17.67;;;5.60;98.10;;;;;;5074742;28;20025;-73
2021/01/24 10:01:51;;;;;;;29.45;16.38;;;5.50;98.20;;;;;;5076058;28;20056;-72
2021/01/24 10:04:17;;;;;;;34.83;17.10;;;5.50;98.10;;;;;;5074737;28;20033;-74
2021/01/24 10:06:43;;;;;;;30.55;16.33;;;5.60;98.00;;;;;;5074350;28;20421;-72
2021/01/24 10:09:09;;;;;;;35.35;17.38;;;5.50;97.80;;;;;;5074287;28;20029;-71
2021/01/24 10:11:35;;;;;;;35.10;18.00;;;5.70;97.90;;;;;;5074135;28;20043;-73
2021/01/24 10:14:01;;;;;;;34.80;17.10;;;5.70;97.80;;;;;;5075949;28;20358;-74
2021/01/24 10:16:29;;;;;;;41.05;17.92;;;5.70;97.80;;;;;;5054490;28;20041;-74
2021/01/24 10:18:55;;;;;;;35.60;17.65;;;5.70;97.90;;;;;;5070041;28;20041;-76
2021/01/24 10:21:20;;;;;;;41.47;20.00;;;5.60;98.10;;;;;;5061381;28;20056;-73
2021/01/24 10:23:46;;;;;;;33.33;16.80;;;5.60;98.30;;;;;;5054165;28;20060;-72
2021/01/24 10:26:14;;;;;;;35.53;17.35;;;5.60;98.30;;;;;;5053832;28;20049;-72
2021/01/24 10:28:40;;;;;;;35.25;16.83;;;5.60;98.40;;;;;;5055514;28;20103;-74
2021/01/24 10:31:05;;;;;;;31.27;16.95;;;5.50;98.30;;;;;;5070922;28;20120;-74
2021/01/24 10:33:31;;;;;;;33.03;16.63;;;5.60;98.30;;;;;;5073019;28;20450;-74
2021/01/24 10:35:57;;;;;;;29.70;16.80;;;5.60;98.30;;;;;;5073608;28;20403;-73
2021/01/24 10:38:22;;;;;;;27.50;16.55;;;5.70;98.40;;;;;;5071202;28;20033;-72
2021/01/24 10:40:49;;;;;;;29.23;16.63;;;5.70;98.20;;;;;;5055135;28;20110;-73
2021/01/24 10:43:15;;;;;;;29.90;16.13;;;5.70;98.30;;;;;;5053880;28;20060;-73
2021/01/24 10:45:40;;;;;;;32.72;17.77;;;5.70;98.30;;;;;;5052565;28;20466;-73
2021/01/24 10:48:07;;;;;;;36.42;18.15;;;5.80;98.30;;;;;;5062682;28;20036;-73
2021/01/24 10:50:35;;;;;;;31.65;16.13;;;5.70;98.20;;;;;;5073223;28;20056;-73
2021/01/24 10:53:01;;;;;;;29.02;16.77;;;5.60;98.10;;;;;;5075108;28;20360;-73
2021/01/24 10:55:27;;;;;;;31.42;16.45;;;5.70;98.30;;;;;;5073933;28;20037;-73
2021/01/24 10:57:52;;;;;;;33.30;16.27;;;5.80;98.20;;;;;;5073952;28;20132;-82
2021/01/24 11:00:18;;;;;;;29.88;17.25;;;5.80;98.30;;;;;;5071821;28;20094;-75
2021/01/24 11:02:44;;;;;;;31.05;16.92;;;5.70;98.20;;;;;;5073125;28;20048;-77
2021/01/24 11:05:10;;;;;;;32.55;18.00;;;5.70;98.40;;;;;;5072029;28;20036;-73
2021/01/24 11:07:36;;;;;;;30.90;16.92;;;5.60;98.40;;;;;;5054756;28;20029;-72
2021/01/24 11:10:06;;;;;;;30.52;17.65;;;5.80;98.50;;;;;;5069444;28;20037;-78
2021/01/24 11:12:32;;;;;;;32.25;16.90;;;5.70;98.50;;;;;;5073049;28;20028;-78
2021/01/24 11:14:58;;;;;;;30.33;16.95;;;5.80;98.50;;;;;;5072508;28;20036;-78
2021/01/24 11:17:24;;;;;;;28.95;16.55;;;5.90;98.40;;;;;;5072052;28;20047;-79
2021/01/24 11:19:51;;;;;;;32.78;17.75;;;5.90;98.20;;;;;;5074738;28;20390;-77
2021/01/24 11:22:18;;;;;;;27.33;16.90;;;6.00;98.30;;;;;;5053319;27;20182;-77
2021/01/24 11:24:45;;;;;;;29.52;16.90;;;6.20;98.40;;;;;;5051673;28;20122;-74
2021/01/24 11:27:11;;;;;;;29.02;16.25;;;6.20;98.20;;;;;;5062290;28;20468;-69
2021/01/24 11:29:37;;;;;;;30.92;16.63;;;6.30;98.10;;;;;;5072750;28;20033;-73
2021/01/24 11:32:04;;;;;;;32.97;15.88;;;6.30;98.00;;;;;;5072575;28;20025;-76
2021/01/24 11:34:30;;;;;;;30.70;17.30;;;6.30;97.90;;;;;;5074315;28;20101;-74
2021/01/24 11:36:55;;;;;;;33.97;17.45;;;6.40;98.00;;;;;;5072908;28;20040;-71
2021/01/24 11:39:21;;;;;;;34.85;18.05;;;6.50;98.00;;;;;;5072458;28;20414;-70
2021/01/24 11:41:47;;;;;;;32.13;16.90;;;6.50;97.70;;;;;;5072211;28;20029;-71
2021/01/24 11:44:13;;;;;;;31.02;17.50;;;6.50;97.70;;;;;;5072604;28;20099;-72
2021/01/24 11:46:39;;;;;;;33.78;18.60;;;6.60;97.70;;;;;;5073420;28;20115;-72
2021/01/24 11:49:05;;;;;;;38.50;20.15;;;6.40;97.80;;;;;;5070548;28;20039;-74
2021/01/24 11:51:31;;;;;;;35.50;19.20;;;6.50;97.80;;;;;;5070842;28;20378;-71
2021/01/24 11:53:57;;;;;;;34.80;19.02;;;6.50;97.70;;;;;;5071865;28;20036;-72
2021/01/24 11:56:22;;;;;;;32.22;17.40;;;6.40;97.80;;;;;;5072025;28;20040;-71
2021/01/24 11:58:48;;;;;;;34.80;17.08;;;6.50;97.60;;;;;;5073797;28;20109;-70
2021/01/24 12:01:14;;;;;;;31.13;16.90;;;6.40;97.60;;;;;;5070864;28;20155;-71
2021/01/24 12:03:40;;;;;;;33.63;18.50;;;6.40;97.70;;;;;;5072065;28;20032;-73
2021/01/24 12:06:06;;;;;;;33.65;18.25;;;6.40;97.80;;;;;;5071972;28;20428;-70
2021/01/24 12:08:32;;;;;;;31.88;17.73;;;6.30;97.90;;;;;;5071873;28;20115;-70
2021/01/24 12:10:57;;;;;;;32.33;17.38;;;6.40;98.00;;;;;;5073542;28;20107;-70
2021/01/24 12:13:23;;;;;;;31.83;16.67;;;6.50;98.00;;;;;;5071770;28;20105;-71
2021/01/24 12:15:49;;;;;;;32.03;16.83;;;6.50;97.90;;;;;;5057257;28;20041;-71
2021/01/24 12:18:15;;;;;;;31.60;17.25;;;6.60;97.90;;;;;;5051710;28;20104;-71
2021/01/24 12:20:40;;;;;;;32.95;17.23;;;6.60;98.10;;;;;;5050914;28;20033;-73
2021/01/24 12:23:06;;;;;;;31.67;17.23;;;6.70;97.90;;;;;;5051700;28;20506;-71
2021/01/24 12:25:31;;;;;;;29.20;16.83;;;6.70;97.90;;;;;;5052219;28;20439;-71
2021/01/24 12:27:57;;;;;;;30.33;16.35;;;6.80;97.60;;;;;;5067801;28;20098;-72
2021/01/24 12:30:23;;;;;;;32.47;18.10;;;6.90;97.60;;;;;;5071468;28;20366;-71
2021/01/24 12:32:49;;;;;;;31.42;16.25;;;7.00;97.80;;;;;;5071470;28;20041;-71
2021/01/24 12:35:14;;;;;;;30.73;17.00;;;7.10;97.50;;;;;;5071693;28;20111;-71
2021/01/24 12:37:40;;;;;;;28.02;15.48;;;6.90;97.00;;;;;;5073134;28;20035;-72
2021/01/24 12:40:07;;;;;;;29.60;16.70;;;6.90;97.30;;;;;;5071510;28;20059;-72